Scott AFB/Midamerica Airport
KBLV : rendu visible

Aérodrome :











RETROUVEZ-NOUS SUR...

 
LOGIN :

S'inscrire | Disclaimer

   EN    FR    IT 

 









Légende :    VFR   VFR Marginal   IFR   IFR Intensif   IFR Très Intensif
Visi : 
Plafond : 
>= 8 km
>= 3000ft
5 à 8 km
1000 à 3000 ft
1500m à 5 km
500 à 1000 ft
800 à 1500m
200 à 500 ft
< 800m
< 200 ft
Symboles :   Orages  Brouillard  Fortes neiges  Fortes précipitations  Vent > 20 kt






- Altitude de l'aérodrome : 459 ft


KBLV - Scott AFB/Midamerica

DERNIER METAR :
  • 260356Z AUTO 14005KT 10SM OVC130 22/19 A2993 RMK AO2 SLP135 T02210192 $

METARs EXPIRÉS :
  • 260256Z AUTO 11007KT 10SM SCT110 SCT170 23/17 A2992 RMK AO2 SLP131 T02310173 50015 $
  • 260156Z AUTO 15011KT 10SM FEW065 SCT095 BKN140 24/20 A2992 RMK AO2 SLP131 T02440199 $

TAF TAF KBLV
Valide du 26 à 00h jusqu'au 27 à 06h UTC


260000Z 2600/2706 15009KT 9999 SCT030 BKN050 QNH2990INS
BECMG 2616/2617 17012G18KT 9999 BKN050 QNH2989INS
BECMG 2621/2622 16009KT 9999 VCTS BKN030CB QNH2990INS TX30/2620Z TN20/2609Z
FIR KZKC / Amérique du Nord



MET'MAP, la Météo Aéronautique d'un coup d'oeil ! - Copyright ORBIFLY Décembre 2007 - Disclaimer

ORBIFLY MET'MAP TEAM :

Programmation & Développement : Alexandra Zaïnal
Sur une idée originale de : Baudouin d'Aumeries
Assistance à la programmation : Marc-Olivier Méhu
Soutien technique & logistique : Manuel Goepfert

Contact : metmap@orbifly.com




SOURCES & CREDITS :

   NOAA       Earth
Advisory